x

Capers Nearshore (cap 2) (41029) Weather Station

5:08pm - Mon 24th Apr 2017 All times are EDT. -4 hours from GMT.

  • Wind
    11mph, 18mph gusts
  • Sea Temp 72°f
  • Air Temp 74°f
  • Sea Pressure 1002.1mb
  • Capers Nearshore (cap 2)
  • Capers Nearshore (cap 2)

More Historic Weather Station data

Upgrade to MSW Pro to gain access to the past 30 days of data for over 8000 Wavebouys and Weather Stations around the globe.

Join Pro

Comparision Forecast

View Surf forecast
   
Mon 04/24 5:08pm 11 18 mph 1002.1mb 72f 74f
4:08pm 13 20 mph 1002.5mb 72f 71f
3:08pm 11 16 mph 1003.3mb 72f 72f
2:08pm 16 22 mph 1004.2mb 72f 71f
1:08pm 13 20 mph 1004.3mb 72f 72f
12:08pm 11 18 mph 1004.9mb 72f 72f
11:08am 22 29 mph 1005mb 72f 69f
10:08am 18 25 mph 1005.8mb 72f 71f
9:08am 20 27 mph 1005.2mb 72f 75f
8:08am 20 27 mph 1004.8mb 72f 75f
7:08am 18 25 mph 1005.1mb 72f 74f
6:08am 16 22 mph 1005.1mb 72f 74f
5:08am 16 22 mph 1005.2mb 73f 74f
4:08am 20 25 mph 1005.4mb 73f 74f
3:08am 18 25 mph 1005.9mb 73f 74f
2:08am 16 22 mph 1007.1mb 73f 74f
1:08am 13 20 mph 1008mb 73f 74f
12:08am 11 18 mph 1009.1mb 73f 74f
Sun 04/23 11:08pm 13 18 mph 1009.2mb 73f 74f
10:08pm 16 20 mph 1009mb 74f 75f
9:08pm 13 20 mph 1009.1mb 74f 74f
8:08pm 13 18 mph 1008.9mb 74f 75f
7:08pm 13 20 mph 1008.8mb 74f 75f
6:08pm 13 20 mph 1008.7mb 75f 76f
5:08pm 13 18 mph 1008.9mb 74f 75f
4:08pm 11 18 mph 1009.5mb 74f 75f
3:08pm 11 16 mph 1010.4mb 74f 75f
2:08pm 9 13 mph 1011mb 73f 75f
1:08pm 11 16 mph 1011.5mb 73f 74f
12:08pm 11 16 mph 1012mb 73f 74f
11:08am 11 16 mph 1012.2mb 73f 73f
10:08am 9 11 mph 1012.2mb 71f 73f
9:08am 9 11 mph 1012mb 71f 72f
8:08am 9 13 mph 1011.8mb 71f 72f
7:08am 9 11 mph 1011.4mb 72f 72f
6:08am 11 16 mph 1010.9mb 72f 71f
5:08am 11 18 mph 1011mb 72f 72f
4:08am 11 16 mph 1011.2mb 72f 72f
3:08am 11 18 mph 1011.4mb 72f 72f
2:08am 11 16 mph 1012.1mb 72f 72f
1:08am 11 16 mph 1012.6mb 72f 73f
12:08am 13 18 mph 1013mb 72f 73f
Sat 04/22 11:08pm 16 22 mph 1012.5mb 72f 74f
10:08pm 16 22 mph 1012mb 72f 73f
9:08pm 18 22 mph 1011.4mb 72f 73f
8:08pm 18 25 mph 1010.8mb 71f 74f
7:08pm 18 22 mph 1011.1mb 71f 74f
6:08pm 18 25 mph 1011.6mb 71f 74f
5:08pm 18 25 mph 1011.7mb 71f 74f
4:08pm 18 25 mph 1012mb 72f 74f
3:08pm 18 22 mph 1012.8mb 72f 73f
2:08pm 18 25 mph 1013.6mb 71f 73f
1:08pm 18 22 mph 1014.6mb 71f 73f
12:08pm 18 27 mph 1015.1mb 71f 73f
11:08am 18 22 mph 1015.3mb 71f 73f
10:08am 16 22 mph 1015mb 71f 73f
9:08am 16 20 mph 1014.6mb 71f 72f
8:08am 16 22 mph 1014.5mb 70f 72f
7:08am 16 20 mph 1014mb 70f 72f
6:08am 16 20 mph 1013.6mb 70f 72f
5:08am 16 20 mph 1013.6mb 70f 72f
4:08am 11 16 mph 1013.6mb 71f 72f
3:08am 13 20 mph 1013.8mb 71f 72f
2:08am 13 20 mph 1014.4mb 71f 72f
1:08am 13 18 mph 1014.9mb 71f 72f
12:08am 13 20 mph 1015.3mb 71f 73f
Fri 04/21 11:08pm 18 22 mph 1015.3mb 71f 73f
10:08pm 16 22 mph 1015.4mb 72f 74f
9:08pm 16 22 mph 1014.6mb 71f 74f
8:08pm 18 25 mph 1014.1mb 71f 75f
7:08pm 18 22 mph 1014.1mb 71f 76f
6:08pm 20 25 mph 1014.1mb 72f 76f
5:08pm 18 25 mph 1014.4mb 73f 76f
4:08pm 18 22 mph 1014.8mb 72f 75f
3:08pm 18 25 mph 1015.7mb 72f 75f
2:08pm 16 22 mph 1016.7mb 72f 74f
1:08pm 18 22 mph 1017.2mb 72f 74f
12:08pm 16 22 mph 1017.5mb 72f 75f
11:08am 16 22 mph 1017.8mb 72f 75f
10:08am 13 16 mph 1017.9mb 72f 74f
9:08am 11 18 mph 1018mb 72f 74f
8:08am 11 16 mph 1018.2mb 72f 74f
7:08am 13 18 mph 1017.9mb 72f 73f
6:08am 13 20 mph 1017.4mb 71f 74f
5:08am 16 20 mph 1017.3mb 71f 74f
4:08am 16 20 mph 1017.6mb 72f 74f
3:08am 13 20 mph 1017.6mb 71f 74f
2:08am 13 20 mph 1018.2mb 71f 73f
1:08am 13 20 mph 1018.8mb 72f 73f
12:08am 11 18 mph 1019.1mb 72f 73f
Thu 04/20 11:08pm 11 16 mph 1019.4mb 72f 74f